createdAt,value
2022-09-09T00:00:25.090Z,1005.29
2022-09-09T00:01:25.431Z,1005.26
2022-09-09T00:02:25.820Z,1005.31
2022-09-09T00:03:26.145Z,1005.29
2022-09-09T00:04:26.377Z,1005.27
2022-09-09T00:05:26.732Z,1005.27
2022-09-09T00:06:27.028Z,1005.29
2022-09-09T00:07:27.355Z,1005.34
2022-09-09T00:08:27.683Z,1005.34
2022-09-09T00:09:28.022Z,1005.35
2022-09-09T00:10:28.333Z,1005.33
2022-09-09T00:11:31.423Z,1005.37
2022-09-09T00:12:28.914Z,1005.34
2022-09-09T00:13:29.263Z,1005.32
2022-09-09T00:14:29.573Z,1005.40
2022-09-09T00:15:29.946Z,1005.38
2022-09-09T00:16:30.151Z,1005.32
2022-09-09T00:17:30.466Z,1005.36
2022-09-09T00:18:30.796Z,1005.40
2022-09-09T00:19:31.204Z,1005.37
2022-09-09T00:20:31.426Z,1005.36
2022-09-09T00:21:31.735Z,1005.37
2022-09-09T00:22:32.045Z,1005.34
2022-09-09T00:23:32.416Z,1005.31
2022-09-09T00:24:32.618Z,1005.30
2022-09-09T00:25:33.062Z,1005.33
2022-09-09T00:26:33.248Z,1005.40
2022-09-09T00:27:33.576Z,1005.38
2022-09-09T00:28:33.988Z,1005.38
2022-09-09T00:29:34.160Z,1005.35
2022-09-09T00:30:34.492Z,1005.32
2022-09-09T00:31:34.790Z,1005.28
2022-09-09T00:32:35.225Z,1005.30
2022-09-09T00:33:35.436Z,1005.26
2022-09-09T00:34:35.746Z,1005.34
2022-09-09T00:35:36.060Z,1005.37
2022-09-09T00:36:36.378Z,1005.43
2022-09-09T00:37:36.702Z,1005.42
2022-09-09T00:38:37.053Z,1005.38
2022-09-09T00:39:37.304Z,1005.40
2022-09-09T00:40:37.509Z,1005.35
2022-09-09T00:41:37.813Z,1005.40
2022-09-09T00:42:38.124Z,1005.41
2022-09-09T00:43:38.474Z,1005.39
2022-09-09T00:44:38.936Z,1005.38
2022-09-09T00:45:39.115Z,1005.38
2022-09-09T00:46:39.471Z,1005.48
2022-09-09T00:47:39.654Z,1005.43
2022-09-09T00:48:39.985Z,1005.42
2022-09-09T00:49:40.318Z,1005.41
2022-09-09T00:50:40.627Z,1005.36
2022-09-09T00:51:40.945Z,1005.44
2022-09-09T00:52:41.265Z,1005.40
2022-09-09T00:53:41.597Z,1005.45
2022-09-09T00:54:41.921Z,1005.39
2022-09-09T00:55:42.238Z,1005.40
2022-09-09T00:56:42.566Z,1005.40
2022-09-09T00:57:42.877Z,1005.43
2022-09-09T00:58:43.277Z,1005.47
2022-09-09T00:59:43.468Z,1005.42
2022-09-09T01:00:43.782Z,1005.46
2022-09-09T01:01:44.179Z,1005.47
2022-09-09T01:02:44.467Z,1005.45
2022-09-09T01:03:44.712Z,1005.41
2022-09-09T01:04:44.886Z,1005.48
2022-09-09T01:05:45.386Z,1005.43
2022-09-09T01:06:46.421Z,1005.49
2022-09-09T01:07:45.818Z,1005.47
2022-09-09T01:08:46.141Z,1005.41
2022-09-09T01:09:46.461Z,1005.53
2022-09-09T01:10:46.900Z,1005.57
2022-09-09T01:11:47.143Z,1005.56
2022-09-09T01:12:47.336Z,1005.55
2022-09-09T01:13:47.672Z,1005.58
2022-09-09T01:14:47.996Z,1005.67
2022-09-09T01:15:48.323Z,1005.73
2022-09-09T01:16:48.737Z,1005.69
2022-09-09T01:17:48.969Z,1005.69
2022-09-09T01:18:49.287Z,1005.62
2022-09-09T01:19:49.625Z,1005.69
2022-09-09T01:20:49.946Z,1005.67
2022-09-09T01:21:50.271Z,1005.68
2022-09-09T01:22:50.584Z,1005.69
2022-09-09T01:23:50.945Z,1005.72
2022-09-09T01:24:51.127Z,1005.77
2022-09-09T01:25:51.438Z,1005.71
2022-09-09T01:26:51.749Z,1005.71
2022-09-09T01:27:52.059Z,1005.73
2022-09-09T01:28:52.378Z,1005.75
2022-09-09T01:29:52.691Z,1005.67
2022-09-09T01:30:53.060Z,1005.68
2022-09-09T01:31:53.272Z,1005.68
2022-09-09T01:32:53.570Z,1005.62
2022-09-09T01:33:53.900Z,1005.63
2022-09-09T01:34:54.211Z,1005.67
2022-09-09T01:35:54.548Z,1005.66
2022-09-09T01:36:54.859Z,1005.69
2022-09-09T01:37:55.177Z,1005.67
2022-09-09T01:38:55.502Z,1005.66
2022-09-09T01:39:55.892Z,1005.69
2022-09-09T01:40:56.082Z,1005.72
2022-09-09T01:41:56.419Z,1005.72
2022-09-09T01:42:56.726Z,1005.67
2022-09-09T01:43:57.063Z,1005.64
2022-09-09T01:44:57.365Z,1005.62
2022-09-09T01:45:57.731Z,1005.64
2022-09-09T01:46:57.963Z,1005.66
2022-09-09T01:47:58.473Z,1005.58
2022-09-09T01:48:58.625Z,1005.56
2022-09-09T01:49:58.942Z,1005.60
2022-09-09T01:50:59.252Z,1005.59
2022-09-09T01:51:59.563Z,1005.67
2022-09-09T01:52:59.884Z,1005.69
2022-09-09T01:54:00.207Z,1005.68
2022-09-09T01:55:00.538Z,1005.69
2022-09-09T01:56:00.861Z,1005.67
2022-09-09T01:57:01.168Z,1005.70
2022-09-09T01:58:01.519Z,1005.68
2022-09-09T01:59:01.849Z,1005.66
2022-09-09T02:00:02.207Z,1005.67
2022-09-09T02:01:02.540Z,1005.68
2022-09-09T02:02:02.799Z,1005.67
2022-09-09T02:03:02.973Z,1005.66
2022-09-09T02:04:03.316Z,1005.71
2022-09-09T02:05:03.615Z,1005.75
2022-09-09T02:06:03.959Z,1005.73
2022-09-09T02:07:04.284Z,1005.70
2022-09-09T02:08:04.622Z,1005.69
2022-09-09T02:09:04.943Z,1005.65
2022-09-09T02:10:05.271Z,1005.67
2022-09-09T02:11:05.568Z,1005.67
2022-09-09T02:12:05.894Z,1005.69
2022-09-09T02:13:06.224Z,1005.65
2022-09-09T02:14:06.545Z,1005.67
2022-09-09T02:15:06.852Z,1005.66
2022-09-09T02:16:07.164Z,1005.64
2022-09-09T02:17:07.489Z,1005.68
2022-09-09T02:18:07.824Z,1005.64
2022-09-09T02:19:08.129Z,1005.63
2022-09-09T02:20:08.445Z,1005.62
2022-09-09T02:21:08.747Z,1005.61
2022-09-09T02:22:09.088Z,1005.61
2022-09-09T02:23:09.446Z,1005.60
2022-09-09T02:24:09.634Z,1005.57
2022-09-09T02:25:09.948Z,1005.58
2022-09-09T02:26:10.297Z,1005.63
2022-09-09T02:27:10.639Z,1005.60
2022-09-09T02:28:10.866Z,1005.54
2022-09-09T02:29:11.198Z,1005.55
2022-09-09T02:30:11.511Z,1005.57
2022-09-09T02:31:11.896Z,1005.58
2022-09-09T02:32:12.150Z,1005.53
2022-09-09T02:33:12.477Z,1005.56
2022-09-09T02:34:12.808Z,1005.59
2022-09-09T02:35:13.122Z,1005.54
2022-09-09T02:36:13.438Z,1005.61
2022-09-09T02:37:13.789Z,1005.64
2022-09-09T02:38:14.093Z,1005.64
2022-09-09T02:39:14.405Z,1005.63
2022-09-09T02:40:14.785Z,1005.63
2022-09-09T02:41:15.002Z,1005.63
2022-09-09T02:42:15.329Z,1005.68
2022-09-09T02:43:15.682Z,1005.66
2022-09-09T02:44:15.864Z,1005.64
2022-09-09T02:45:16.237Z,1005.64
2022-09-09T02:46:16.460Z,1005.69
2022-09-09T02:47:16.776Z,1005.68
2022-09-09T02:48:17.016Z,1005.66
2022-09-09T02:49:17.229Z,1005.73
2022-09-09T02:50:17.569Z,1005.69
2022-09-09T02:51:17.853Z,1005.67
2022-09-09T02:52:18.077Z,1005.63
2022-09-09T02:53:18.427Z,1005.63
2022-09-09T02:54:18.637Z,1005.64
2022-09-09T02:55:19.001Z,1005.71
2022-09-09T02:56:19.340Z,1005.75
2022-09-09T02:57:19.578Z,1005.70
2022-09-09T02:58:19.816Z,1005.69
2022-09-09T02:59:20.062Z,1005.73
2022-09-09T03:00:20.269Z,1005.70
2022-09-09T03:01:20.636Z,1005.76
2022-09-09T03:02:20.946Z,1005.79
2022-09-09T03:03:21.268Z,1005.82
2022-09-09T03:04:21.507Z,1005.82
2022-09-09T03:05:21.833Z,1005.82
2022-09-09T03:06:22.043Z,1005.86
2022-09-09T03:07:22.407Z,1005.84
2022-09-09T03:08:22.652Z,1005.84
2022-09-09T03:09:22.890Z,1005.85
2022-09-09T03:10:23.102Z,1005.83
2022-09-09T03:11:23.456Z,1005.88
2022-09-09T03:12:23.675Z,1005.88
2022-09-09T03:13:24.045Z,1005.90
2022-09-09T03:14:24.272Z,1005.87
2022-09-09T03:15:24.495Z,1005.89
2022-09-09T03:16:24.835Z,1005.92
2022-09-09T03:17:25.054Z,1005.90
2022-09-09T03:18:25.313Z,1005.93
2022-09-09T03:19:25.552Z,1005.92
2022-09-09T03:20:25.737Z,1005.94
2022-09-09T03:21:26.098Z,1005.98
2022-09-09T03:22:26.317Z,1005.93
2022-09-09T03:23:26.690Z,1005.99
2022-09-09T03:24:26.920Z,1005.92
2022-09-09T03:25:27.157Z,1005.95
2022-09-09T03:26:27.380Z,1005.99
2022-09-09T03:27:27.631Z,1005.98
2022-09-09T03:28:27.894Z,1005.93
2022-09-09T03:30:41.548Z,1005.96
2022-09-09T03:31:41.830Z,1005.89
2022-09-09T03:32:44.071Z,1005.90
2022-09-09T03:33:43.398Z,1005.84
2022-09-09T03:34:42.688Z,1005.90
2022-09-09T03:35:42.929Z,1005.86
2022-09-09T03:36:43.150Z,1005.90
2022-09-09T03:37:43.511Z,1005.90
2022-09-09T03:38:43.751Z,1005.87
2022-09-09T03:39:44.056Z,1005.90
2022-09-09T03:40:44.271Z,1005.92
2022-09-09T03:41:44.502Z,1005.87
2022-09-09T03:42:44.735Z,1005.82
2022-09-09T03:43:45.094Z,1005.85
2022-09-09T03:44:45.344Z,1005.86
2022-09-09T03:45:45.775Z,1005.88
2022-09-09T03:46:45.993Z,1005.90
2022-09-09T03:47:46.364Z,1005.91
2022-09-09T03:48:46.611Z,1005.91
2022-09-09T03:49:46.832Z,1005.89
2022-09-09T03:50:47.174Z,1005.90
2022-09-09T03:51:47.536Z,1005.85
2022-09-09T03:52:47.771Z,1005.89
2022-09-09T03:53:48.005Z,1005.91
2022-09-09T03:54:48.230Z,1005.91
2022-09-09T03:55:48.578Z,1005.90
2022-09-09T03:56:48.805Z,1005.87
2022-09-09T03:57:49.038Z,1005.85
2022-09-09T03:58:49.285Z,1005.88
2022-09-09T03:59:49.530Z,1005.86
2022-09-09T04:00:49.797Z,1005.90
2022-09-09T04:01:50.030Z,1005.88
2022-09-09T04:02:50.279Z,1005.87
2022-09-09T04:03:50.522Z,1005.92
2022-09-09T04:04:50.755Z,1005.87
2022-09-09T04:05:50.990Z,1005.90
2022-09-09T04:06:51.210Z,1005.87
2022-09-09T04:07:51.440Z,1005.89
2022-09-09T04:08:51.769Z,1005.88
2022-09-09T04:09:51.987Z,1005.90
2022-09-09T04:10:52.222Z,1005.86
2022-09-09T04:11:52.444Z,1005.84
2022-09-09T04:12:52.682Z,1005.90
2022-09-09T04:13:53.044Z,1005.88
2022-09-09T04:14:53.264Z,1005.95
2022-09-09T04:15:53.633Z,1005.94
2022-09-09T04:16:53.904Z,1005.95
2022-09-09T04:17:54.144Z,1005.99
2022-09-09T04:18:54.383Z,1005.97
2022-09-09T04:19:54.632Z,1005.97
2022-09-09T04:20:54.858Z,1006.01
2022-09-09T04:21:55.086Z,1006.01
2022-09-09T04:22:55.566Z,1005.97
2022-09-09T04:23:55.644Z,1005.97
2022-09-09T04:24:55.856Z,1005.98
2022-09-09T04:25:56.209Z,1006.01
2022-09-09T04:26:56.482Z,1006.00
2022-09-09T04:27:56.696Z,1006.08
2022-09-09T04:28:56.928Z,1006.05
2022-09-09T04:29:57.185Z,1006.06
2022-09-09T04:30:57.422Z,1006.05
2022-09-09T04:31:57.691Z,1006.02
2022-09-09T04:32:57.946Z,1006.03
2022-09-09T04:33:58.200Z,1006.08
2022-09-09T04:34:58.439Z,1006.06
2022-09-09T04:35:58.694Z,1006.07
2022-09-09T04:36:58.943Z,1006.06
2022-09-09T04:37:59.222Z,1006.09
2022-09-09T04:38:59.541Z,1006.13
2022-09-09T04:39:59.850Z,1006.13
2022-09-09T04:41:00.091Z,1006.15
2022-09-09T04:42:00.343Z,1006.12
2022-09-09T04:43:00.602Z,1006.17
2022-09-09T04:44:00.853Z,1006.20
2022-09-09T04:45:01.113Z,1006.22
2022-09-09T04:46:01.401Z,1006.28
2022-09-09T04:47:01.593Z,1006.30
2022-09-09T04:48:01.844Z,1006.36
2022-09-09T04:49:02.105Z,1006.34
2022-09-09T04:50:02.347Z,1006.40
2022-09-09T04:51:02.605Z,1006.40
2022-09-09T04:52:02.846Z,1006.34
2022-09-09T04:53:03.087Z,1006.34
2022-09-09T04:54:03.346Z,1006.40
2022-09-09T04:55:03.599Z,1006.33
2022-09-09T04:56:03.858Z,1006.37
2022-09-09T04:57:04.096Z,1006.41
2022-09-09T04:58:04.348Z,1006.37
2022-09-09T04:59:04.597Z,1006.41
2022-09-09T05:00:04.852Z,1006.40
2022-09-09T05:01:05.184Z,1006.36
2022-09-09T05:02:05.487Z,1006.31
2022-09-09T05:03:05.728Z,1006.33
2022-09-09T05:04:06.007Z,1006.30
2022-09-09T05:05:06.247Z,1006.27
2022-09-09T05:06:06.588Z,1006.27
2022-09-09T05:07:06.860Z,1006.31
2022-09-09T05:08:07.101Z,1006.28
2022-09-09T05:09:07.383Z,1006.29
2022-09-09T05:10:07.636Z,1006.31
2022-09-09T05:11:07.894Z,1006.25
2022-09-09T05:12:08.135Z,1006.24
2022-09-09T05:13:08.392Z,1006.32
2022-09-09T05:14:08.643Z,1006.28
2022-09-09T05:15:08.903Z,1006.28
2022-09-09T05:16:09.184Z,1006.31
2022-09-09T05:17:09.423Z,1006.33
2022-09-09T05:18:09.694Z,1006.37
2022-09-09T05:19:09.964Z,1006.39
2022-09-09T05:20:13.502Z,1006.41
2022-09-09T05:21:11.545Z,1006.41
2022-09-09T05:22:10.856Z,1006.44
2022-09-09T05:23:11.103Z,1006.47
2022-09-09T05:24:11.358Z,1006.39
2022-09-09T05:25:11.579Z,1006.42
2022-09-09T05:26:16.601Z,1006.47
2022-09-09T05:27:13.259Z,1006.41
2022-09-09T05:28:12.558Z,1006.49
2022-09-09T05:29:12.852Z,1006.47
2022-09-09T05:30:13.079Z,1006.50
2022-09-09T05:31:13.361Z,1006.49
2022-09-09T05:32:15.499Z,1006.50
2022-09-09T05:33:13.923Z,1006.57
2022-09-09T05:34:14.190Z,1006.60
2022-09-09T05:35:14.436Z,1006.60
2022-09-09T05:36:14.662Z,1006.63
2022-09-09T05:37:14.891Z,1006.59
2022-09-09T05:38:15.247Z,1006.59
2022-09-09T05:39:15.530Z,1006.59
2022-09-09T05:40:15.830Z,1006.60
2022-09-09T05:41:16.085Z,1006.54
2022-09-09T05:42:16.312Z,1006.56
2022-09-09T05:43:16.664Z,1006.57
2022-09-09T05:44:16.913Z,1006.64
2022-09-09T05:45:17.148Z,1006.61
2022-09-09T05:46:17.421Z,1006.60
2022-09-09T05:47:17.633Z,1006.62
2022-09-09T05:48:17.869Z,1006.65
2022-09-09T05:49:18.105Z,1006.66
2022-09-09T05:50:18.334Z,1006.66
2022-09-09T05:51:18.555Z,1006.64
2022-09-09T05:52:18.787Z,1006.68
2022-09-09T05:53:19.005Z,1006.65
2022-09-09T05:54:19.376Z,1006.67
2022-09-09T05:55:19.595Z,1006.65
2022-09-09T05:56:19.976Z,1006.60
2022-09-09T05:57:20.200Z,1006.64
2022-09-09T05:58:20.442Z,1006.69
2022-09-09T05:59:20.670Z,1006.67
2022-09-09T06:00:20.900Z,1006.71
2022-09-09T06:01:21.131Z,1006.67
2022-09-09T06:02:21.498Z,1006.73
2022-09-09T06:03:21.729Z,1006.69
2022-09-09T06:04:22.018Z,1006.72
2022-09-09T06:05:22.240Z,1006.70
2022-09-09T06:06:22.483Z,1006.67
2022-09-09T06:07:22.703Z,1006.67
2022-09-09T06:08:22.943Z,1006.68
2022-09-09T06:09:23.174Z,1006.68
2022-09-09T06:10:23.403Z,1006.65
2022-09-09T06:11:23.642Z,1006.66
2022-09-09T06:12:23.853Z,1006.65
2022-09-09T06:13:24.093Z,1006.69
2022-09-09T06:14:24.324Z,1006.70
2022-09-09T06:15:24.564Z,1006.64
2022-09-09T06:16:24.896Z,1006.63
2022-09-09T06:17:25.125Z,1006.73
2022-09-09T06:18:25.368Z,1006.64
2022-09-09T06:19:25.605Z,1006.59
2022-09-09T06:20:25.827Z,1006.61
2022-09-09T06:21:26.055Z,1006.68
2022-09-09T06:22:26.286Z,1006.65
2022-09-09T06:23:26.516Z,1006.63
2022-09-09T06:24:26.747Z,1006.66
2022-09-09T06:25:26.987Z,1006.64
2022-09-09T06:26:27.208Z,1006.67
2022-09-09T06:27:27.437Z,1006.64
2022-09-09T06:28:27.663Z,1006.68
2022-09-09T06:29:27.929Z,1006.67
2022-09-09T06:30:29.100Z,1006.69
2022-09-09T06:31:30.109Z,1006.69
2022-09-09T06:32:28.601Z,1006.69
2022-09-09T06:33:28.852Z,1006.70
2022-09-09T06:34:29.090Z,1006.75
2022-09-09T06:35:29.332Z,1006.74
2022-09-09T06:36:29.561Z,1006.80
2022-09-09T06:37:29.813Z,1006.80
2022-09-09T06:38:30.147Z,1006.67
2022-09-09T06:39:30.473Z,1006.73
2022-09-09T06:40:30.841Z,1006.69
2022-09-09T06:41:30.914Z,1006.68
2022-09-09T06:42:31.163Z,1006.69
2022-09-09T06:43:31.515Z,1006.75
2022-09-09T06:44:35.094Z,1006.76
2022-09-09T06:45:32.048Z,1006.73
2022-09-09T06:46:32.386Z,1006.83
2022-09-09T06:47:32.627Z,1006.79
2022-09-09T06:48:32.899Z,1006.72
2022-09-09T06:49:33.146Z,1006.69
2022-09-09T06:50:33.399Z,1006.72
2022-09-09T06:51:33.642Z,1006.68
2022-09-09T06:52:33.885Z,1006.71
2022-09-09T06:53:34.129Z,1006.75
2022-09-09T06:54:34.382Z,1006.67
2022-09-09T06:55:34.684Z,1006.72
2022-09-09T06:56:34.911Z,1006.73
2022-09-09T06:57:37.591Z,1006.68
2022-09-09T06:58:35.417Z,1006.67
2022-09-09T06:59:35.642Z,1006.71
2022-09-09T07:00:35.918Z,1006.66
2022-09-09T07:01:36.165Z,1006.64
2022-09-09T07:02:36.435Z,1006.64
2022-09-09T07:03:36.668Z,1006.62
2022-09-09T07:04:36.913Z,1006.67
2022-09-09T07:05:37.144Z,1006.65
2022-09-09T07:06:37.379Z,1006.66
2022-09-09T07:07:37.604Z,1006.58
2022-09-09T07:08:37.981Z,1006.68
2022-09-09T07:09:38.086Z,1006.66
2022-09-09T07:10:38.333Z,1006.65
2022-09-09T07:11:38.565Z,1006.65
2022-09-09T07:12:38.786Z,1006.65
2022-09-09T07:13:39.174Z,1006.69
2022-09-09T07:14:39.398Z,1006.71
2022-09-09T07:15:39.700Z,1006.72
2022-09-09T07:16:39.990Z,1006.71
2022-09-09T07:17:40.217Z,1006.65
2022-09-09T07:18:40.459Z,1006.61
2022-09-09T07:19:40.700Z,1006.65
2022-09-09T07:20:40.933Z,1006.65
2022-09-09T07:21:41.167Z,1006.68
2022-09-09T07:22:41.421Z,1006.71
2022-09-09T07:23:41.641Z,1006.77
2022-09-09T07:24:41.872Z,1006.69
2022-09-09T07:25:42.102Z,1006.66
2022-09-09T07:26:42.331Z,1006.69
2022-09-09T07:27:42.573Z,1006.69
2022-09-09T07:28:42.803Z,1006.68
2022-09-09T07:29:43.036Z,1006.68
2022-09-09T07:30:43.259Z,1006.67
2022-09-09T07:31:43.577Z,1006.67
2022-09-09T07:32:43.825Z,1006.74
2022-09-09T07:33:44.056Z,1006.79
2022-09-09T07:34:44.286Z,1006.71
2022-09-09T07:35:44.514Z,1006.73
2022-09-09T07:36:44.736Z,1006.76
2022-09-09T07:37:47.777Z,1006.75
2022-09-09T07:38:46.292Z,1006.75
2022-09-09T07:39:45.623Z,1006.77
2022-09-09T07:40:45.860Z,1006.73
2022-09-09T07:41:46.088Z,1006.78
2022-09-09T07:42:46.343Z,1006.78
2022-09-09T07:43:46.571Z,1006.82
2022-09-09T07:44:46.818Z,1006.80
2022-09-09T07:45:47.052Z,1006.81
2022-09-09T07:46:47.358Z,1006.86
2022-09-09T07:47:47.611Z,1006.90
2022-09-09T07:48:47.852Z,1006.91
2022-09-09T07:49:48.074Z,1006.90
2022-09-09T07:50:48.309Z,1006.90
2022-09-09T07:51:48.532Z,1006.91
2022-09-09T07:52:48.772Z,1006.90
2022-09-09T07:53:49.004Z,1006.87
2022-09-09T07:54:49.235Z,1006.85
2022-09-09T07:55:49.462Z,1006.87
2022-09-09T07:56:49.685Z,1006.92
2022-09-09T07:57:50.075Z,1006.91
2022-09-09T07:58:50.313Z,1006.93
2022-09-09T07:59:50.546Z,1006.93
2022-09-09T08:00:50.776Z,1006.91
2022-09-09T08:01:51.046Z,1006.88
2022-09-09T08:02:51.305Z,1006.91
2022-09-09T08:03:56.358Z,1006.87
2022-09-09T08:04:52.817Z,1006.91
2022-09-09T08:05:52.107Z,1006.94
2022-09-09T08:06:52.331Z,1006.95
2022-09-09T08:07:52.587Z,1006.88
2022-09-09T08:08:52.810Z,1006.93
2022-09-09T08:09:53.040Z,1006.94
2022-09-09T08:10:53.270Z,1006.93
2022-09-09T08:11:53.514Z,1006.91
2022-09-09T08:13:14.849Z,1006.96
2022-09-09T08:13:59.004Z,1006.97
2022-09-09T08:14:55.756Z,1006.91
2022-09-09T08:15:56.842Z,1006.95
2022-09-09T08:16:55.263Z,1006.90
2022-09-09T08:17:55.077Z,1006.95
2022-09-09T08:18:55.293Z,1006.95
2022-09-09T08:19:55.655Z,1006.93
2022-09-09T08:20:55.885Z,1006.91
2022-09-09T08:21:56.114Z,1006.88
2022-09-09T08:22:56.356Z,1006.93
2022-09-09T08:23:58.171Z,1006.92
2022-09-09T08:24:56.851Z,1006.92
2022-09-09T08:25:57.090Z,1006.94
2022-09-09T08:26:57.317Z,1006.94
2022-09-09T08:27:57.558Z,1006.90
2022-09-09T08:28:57.809Z,1006.92
2022-09-09T08:29:58.038Z,1006.89
2022-09-09T08:30:58.298Z,1006.94
2022-09-09T08:31:58.588Z,1006.95
2022-09-09T08:32:58.826Z,1006.96
2022-09-09T08:33:59.051Z,1006.95
2022-09-09T08:35:01.194Z,1006.98
2022-09-09T08:35:59.711Z,1006.95
2022-09-09T08:36:59.930Z,1006.95
2022-09-09T08:38:00.181Z,1006.93
2022-09-09T08:39:00.403Z,1006.92
2022-09-09T08:40:00.658Z,1006.92
2022-09-09T08:41:00.889Z,1006.94
2022-09-09T08:42:01.119Z,1006.98
2022-09-09T08:43:01.362Z,1006.91
2022-09-09T08:44:01.605Z,1006.91
2022-09-09T08:45:01.853Z,1006.92
2022-09-09T08:46:02.215Z,1006.93
2022-09-09T08:47:02.429Z,1006.94
2022-09-09T08:48:02.668Z,1006.93
2022-09-09T08:49:02.896Z,1006.94
2022-09-09T08:50:03.125Z,1006.92
2022-09-09T08:51:03.369Z,1006.98
2022-09-09T08:52:03.599Z,1006.96
2022-09-09T08:53:03.832Z,1006.96
2022-09-09T08:54:04.060Z,1007.07
2022-09-09T08:55:04.281Z,1007.07
2022-09-09T08:56:04.531Z,1007.10
2022-09-09T08:57:04.749Z,1007.08
2022-09-09T08:58:04.994Z,1007.07
2022-09-09T08:59:05.227Z,1007.15
2022-09-09T09:00:05.451Z,1007.09
2022-09-09T09:01:05.802Z,1007.09
2022-09-09T09:02:06.101Z,1007.07
2022-09-09T09:03:06.341Z,1007.13
2022-09-09T09:04:06.565Z,1007.10
2022-09-09T09:05:06.857Z,1007.12
2022-09-09T09:06:07.077Z,1007.10
2022-09-09T09:07:07.310Z,1007.09
2022-09-09T09:08:07.546Z,1007.07
2022-09-09T09:09:07.774Z,1007.07
2022-09-09T09:10:24.218Z,1007.06
2022-09-09T09:11:09.314Z,1007.16
2022-09-09T09:12:08.597Z,1007.15
2022-09-09T09:13:08.835Z,1007.12
2022-09-09T09:14:09.066Z,1007.17
2022-09-09T09:15:09.317Z,1007.07
2022-09-09T09:16:09.593Z,1007.02
2022-09-09T09:17:09.808Z,1007.10
2022-09-09T09:18:10.048Z,1007.11
2022-09-09T09:19:10.278Z,1007.09
2022-09-09T09:20:10.511Z,1007.13
2022-09-09T09:21:10.739Z,1007.14
2022-09-09T09:22:10.981Z,1007.13
2022-09-09T09:23:11.215Z,1007.09
2022-09-09T09:24:11.601Z,1007.12
2022-09-09T09:25:11.821Z,1007.11
2022-09-09T09:26:12.040Z,1007.12
2022-09-09T09:27:12.409Z,1007.07
2022-09-09T09:28:12.632Z,1007.08
2022-09-09T09:29:12.990Z,1007.13
2022-09-09T09:30:28.623Z,1007.10
2022-09-09T09:31:14.549Z,1007.13
2022-09-09T09:32:13.818Z,1007.14
2022-09-09T09:33:14.062Z,1007.16
2022-09-09T09:34:14.301Z,1007.17
2022-09-09T09:35:14.562Z,1007.14
2022-09-09T09:36:14.792Z,1007.19
2022-09-09T09:37:15.150Z,1007.18
2022-09-09T09:40:16.984Z,1007.22
2022-09-09T09:41:16.280Z,1007.19
2022-09-09T09:42:18.803Z,1007.19
2022-09-09T09:43:17.894Z,1007.13
2022-09-09T09:44:17.196Z,1007.18
2022-09-09T09:45:17.714Z,1007.21
2022-09-09T09:46:18.389Z,1007.22
2022-09-09T09:47:18.105Z,1007.16
2022-09-09T09:48:18.366Z,1007.14
2022-09-09T09:49:18.595Z,1007.16
2022-09-09T09:50:18.837Z,1007.10
2022-09-09T09:51:19.077Z,1007.13
2022-09-09T09:52:19.426Z,1007.08
2022-09-09T09:53:19.549Z,1007.07
2022-09-09T09:54:19.789Z,1007.10
2022-09-09T09:55:20.042Z,1007.07
2022-09-09T09:56:20.377Z,1007.04
2022-09-09T09:57:20.550Z,1007.07
2022-09-09T09:58:20.783Z,1007.04
2022-09-09T09:59:23.661Z,1007.13
2022-09-09T10:00:22.322Z,1007.13
2022-09-09T10:01:21.669Z,1007.15
2022-09-09T10:02:21.947Z,1007.12
2022-09-09T10:03:22.147Z,1007.15
2022-09-09T10:04:22.388Z,1007.15
2022-09-09T10:05:26.741Z,1007.14
2022-09-09T10:06:23.043Z,1007.07
2022-09-09T10:07:23.224Z,1007.08
2022-09-09T10:08:23.464Z,1007.10
2022-09-09T10:09:23.704Z,1007.12
2022-09-09T10:10:23.936Z,1007.16
2022-09-09T10:11:24.185Z,1007.10
2022-09-09T10:12:24.427Z,1007.11
2022-09-09T10:13:24.656Z,1007.16
2022-09-09T10:14:24.897Z,1007.02
2022-09-09T10:15:25.347Z,1007.10
2022-09-09T10:16:25.494Z,1007.09
2022-09-09T10:17:25.723Z,1007.06
2022-09-09T10:18:25.998Z,1007.07
2022-09-09T10:19:26.240Z,1007.09
2022-09-09T10:20:26.492Z,1007.08
2022-09-09T10:21:31.075Z,1007.10
2022-09-09T10:22:28.226Z,1007.10
2022-09-09T10:23:27.399Z,1007.08
2022-09-09T10:24:27.631Z,1007.06
2022-09-09T10:25:27.881Z,1007.02
2022-09-09T10:26:28.134Z,1007.06
2022-09-09T10:27:28.414Z,1007.09
2022-09-09T10:28:28.799Z,1007.06
2022-09-09T10:29:28.932Z,1007.00
2022-09-09T10:30:29.164Z,1007.01
2022-09-09T10:31:29.497Z,1007.03
2022-09-09T10:32:29.828Z,1006.99
2022-09-09T10:33:30.168Z,1006.96
2022-09-09T10:34:31.572Z,1007.02
2022-09-09T10:35:30.618Z,1006.99
2022-09-09T10:36:30.861Z,1007.00
2022-09-09T10:37:31.119Z,1007.05
2022-09-09T10:38:31.370Z,1007.01
2022-09-09T10:39:31.660Z,1007.09
2022-09-09T10:40:31.904Z,1007.08
2022-09-09T10:41:32.142Z,1007.12
2022-09-09T10:42:32.475Z,1007.10
2022-09-09T10:43:32.793Z,1007.09
2022-09-09T10:44:33.024Z,1007.07
2022-09-09T10:45:33.275Z,1007.06
2022-09-09T10:46:33.559Z,1007.14
2022-09-09T10:47:33.857Z,1007.18
2022-09-09T10:48:34.095Z,1007.18
2022-09-09T10:49:34.336Z,1007.16
2022-09-09T10:51:00.019Z,1007.19
2022-09-09T10:51:35.969Z,1007.13
2022-09-09T10:52:35.257Z,1007.18
2022-09-09T10:53:35.521Z,1007.14
2022-09-09T10:54:35.770Z,1007.17
2022-09-09T10:55:36.018Z,1007.16
2022-09-09T10:56:36.259Z,1007.13
2022-09-09T10:57:36.519Z,1007.15
2022-09-09T10:58:36.758Z,1007.17
2022-09-09T10:59:37.001Z,1007.17
2022-09-09T11:00:37.245Z,1007.20
2022-09-09T11:01:37.545Z,1007.19
2022-09-09T11:02:38.008Z,1007.16
2022-09-09T11:03:38.159Z,1007.19
2022-09-09T11:04:38.422Z,1007.27
2022-09-09T11:05:38.755Z,1007.25
2022-09-09T11:06:38.956Z,1007.21
2022-09-09T11:07:39.233Z,1007.24
2022-09-09T11:08:39.597Z,1007.18
2022-09-09T11:09:39.836Z,1007.22
2022-09-09T11:10:40.088Z,1007.19
2022-09-09T11:11:40.354Z,1007.13
2022-09-09T11:12:40.615Z,1007.18
2022-09-09T11:13:40.919Z,1007.11
2022-09-09T11:14:41.173Z,1007.19
2022-09-09T11:15:41.428Z,1007.16
2022-09-09T11:16:41.693Z,1007.11
2022-09-09T11:17:41.991Z,1007.10
2022-09-09T11:18:42.210Z,1007.12
2022-09-09T11:19:42.463Z,1007.17
2022-09-09T11:20:42.719Z,1007.10
2022-09-09T11:21:42.961Z,1007.13
2022-09-09T11:22:43.223Z,1007.15
2022-09-09T11:23:43.515Z,1007.10
2022-09-09T11:24:43.765Z,1007.10
2022-09-09T11:25:44.021Z,1007.06
2022-09-09T11:26:44.295Z,1007.07
2022-09-09T11:27:44.534Z,1007.12
2022-09-09T11:28:44.786Z,1007.14
2022-09-09T11:29:45.037Z,1007.13
2022-09-09T11:30:56.237Z,1007.17
2022-09-09T11:31:46.648Z,1007.13
2022-09-09T11:32:45.948Z,1007.10
2022-09-09T11:33:46.319Z,1007.09
2022-09-09T11:34:46.427Z,1007.09
2022-09-09T11:35:46.668Z,1007.07
2022-09-09T11:36:46.910Z,1007.06
2022-09-09T11:37:47.190Z,1007.01
2022-09-09T11:38:47.436Z,1007.06
2022-09-09T11:39:47.730Z,1007.07
2022-09-09T11:40:47.994Z,1007.07
2022-09-09T11:41:48.240Z,1007.05
2022-09-09T11:42:48.991Z,1006.98
2022-09-09T11:43:48.786Z,1007.04
2022-09-09T11:44:49.037Z,1007.06
2022-09-09T11:45:49.418Z,1007.13
2022-09-09T11:46:49.513Z,1007.11
2022-09-09T11:47:49.763Z,1007.14
2022-09-09T11:48:50.107Z,1007.10
2022-09-09T11:49:50.353Z,1007.13
2022-09-09T11:50:50.625Z,1007.08
2022-09-09T11:51:50.879Z,1007.04
2022-09-09T11:52:51.134Z,1007.08
2022-09-09T11:53:51.509Z,1007.03
2022-09-09T11:54:51.729Z,1007.01
2022-09-09T11:55:51.988Z,1007.03
2022-09-09T11:56:52.418Z,1007.01
2022-09-09T11:57:52.526Z,1006.97
2022-09-09T11:58:52.759Z,1006.96
2022-09-09T11:59:53.072Z,1006.94
2022-09-09T12:00:53.298Z,1006.98
2022-09-09T12:01:53.571Z,1007.03
2022-09-09T12:02:53.969Z,1007.00
2022-09-09T12:03:54.117Z,1006.96
2022-09-09T12:04:54.356Z,1007.00
2022-09-09T12:05:54.752Z,1006.94
2022-09-09T12:06:54.829Z,1006.89
2022-09-09T12:07:55.088Z,1006.86
2022-09-09T12:08:55.366Z,1006.81
2022-09-09T12:09:55.673Z,1006.78
2022-09-09T12:10:55.903Z,1006.80
2022-09-09T12:11:56.147Z,1006.83